Regionale Übersicht

METAR und TAF

Freitag, 21. Juni 2024 - 21:55 Uhr

Beobachtete horizontale meteorologische Sicht an ausgewählten Flughäfen. Die vollständigen METARs und Flugwettervorhersagen (TAFs) sind verfügbar, wenn Sie auf das entsprechende Symbol mit der ICAO-Flughafenkennung klicken.

  • Luxemburg (ELLX)

    Taf: TAF ELLX 211700Z 2118/2224 26010KT 9999 SCT010 BKN015 TEMPO 2118/2124 BKN012 TEMPO 2200/2206 VRB02KT 3500 BR BKN004 TEMPO 2205/2216 4500 SHRA BKN015CB PROB30 TEMPO 2221/2224 3000 BR BKN003=

    Metar: METAR ELLX 211920Z 27011KT 9999 FEW013 SCT016 14/11 Q1014 NOSIG=

  • Spangdahlem (ETAD)

    Taf: TAF AMD ETAD 211855Z 2118/2218 27009KT 9999 BKN015 OVC020 QNH2986INS BECMG 2120/2121 30009KT 9999 BKN020 OVC030 QNH2993INS BECMG 2206/2207 22009KT 9000 -SHRA OVC015 QNH2996INS BECMG 2214/2215 24009KT 9999 NSW BKN030 OVC060 QNH2997INS TX22/2213Z TN12/2202Z=

    Metar: METAR ETAD 211900Z NIL=

  • Metz/Nancy (LFJL)

    Taf: TAF LFJL 211700Z 2118/2218 27008KT 9999 BKN030 PROB30 TEMPO 2118/2124 -SHRA FEW030TCU TEMPO 2200/2207 4000 SHRA BKN030TCU TEMPO 2207/2214 RA BKN012 FEW020TCU PROB40 TEMPO 2214/2218 4000 SHRA SCT020TCU=

    Metar: METAR LFJL 211930Z AUTO 28005KT CAVOK 16/12 Q1015 TEMPO FEW030TCU=

  • Saarbrücken/Intl (EDDR)

    Taf: TAF EDDR 211700Z 2118/2218 25011KT 9999 BKN020 BECMG 2121/2124 23005KT BECMG 2201/2204 BKN008 TEMPO 2204/2209 3000 SHRA BR BKN004CB BECMG 2209/2212 SCT008 BKN015=

    Metar: METAR EDDR 211920Z AUTO 28011KT 9999 SCT025 16/12 Q1015 NOSIG=

  • Hahn (EDFH)

    Taf: TAF AMD EDFH 211927Z 2119/2218 26011KT 9999 BKN030 TEMPO 2119/2122 4000 -DZ BKN004 BECMG 2200/2203 24006KT BECMG 2202/2205 BKN010 TEMPO 2206/2210 SHRA BKN008CB BECMG 2210/2213 SCT010 BKN020=

    Metar: METAR EDFH 211920Z 27013KT 6000 -DZ BKN005 14/13 Q1013=

  • Ramstein (ETAR)

    Taf: TAF ETAR 211800Z 2118/2224 27010G15KT 9999 BKN025 QNH2989INS BECMG 2201/2202 21006KT 8000 BR SCT010 QNH2999INS TEMPO 2202/2206 5000 BR BKN015 BECMG 2207/2208 23010G20KT 9000 -RA BKN015 QNH2996INS BEMCG 2210/2211 24010G20KT 9999 NSW SCT020 BKN060 QNH2998INS BECMG 2216/2217 25006KT 9999 BKN060 QNH3002INS TX19/2213Z TN13/2203Z=

    Metar: METAR ETAR 211855Z AUTO 25008KT 9999 FEW026 BKN041 18/14 A2992 RMK AO2 SLP133 T01790138 $=

  • Nancy/Ochey (LFSO)

    Taf: TAF AMD LFSO 211551Z 2115/2215 CNL=

    Metar: METAR LFSO 211930Z AUTO 28007KT CAVOK 16/13 Q1016=

  • Liège Bierset (EBLG)

    Taf: TAF AMD EBLG 211720Z 2118/2224 23006KT 4000 -RA BKN008 BECMG 2118/2120 9999 NSW SCT020 PROB40 TEMPO 2206/2213 3000 RA SHRA BKN006 BKN012CB PROB30 TEMPO 2213/2220 4500 SHRA BKN012TCU=

    Metar: METAR EBLG 211920Z 18005KT 3500 BR NSC 13/13 Q1013 NOSIG=

  • Saint-Dizier (LFSI)

    Taf: TAF LFSI 211400Z NIL=

    Metar: METAR LFSI 211930Z AUTO 16003KT CAVOK 17/14 Q1015=

  • Maastricht/Zuid Limburg (EHBK)

    Taf: TAF EHBK 211716Z 2118/2224 24006KT 9999 OVC020 TEMPO 2118/2121 3500 -DZ BKN007 PROB40 TEMPO 2118/2120 1400 DZ SHRA BKN002 SCT030CB PROB40 TEMPO 2213/2218 7000 RA -SHRA SCT030TCU BKN040=

    Metar: METAR EHBK 211925Z AUTO 22006KT 9999 FEW015CB 13/12 Q1013 NOSIG=

  • Köln/Köln-Bonn (EDDK)

    Taf: TAF EDDK 211700Z 2118/2224 28015KT 9999 SCT012 BKN030 BECMG 2118/2120 28007KT TEMPO 2118/2120 BKN010 TEMPO 2120/2123 3000 RADZ BKN006 BECMG 2200/2202 20003KT BECMG 2208/2210 27007KT BECMG 2218/2220 VRB03KT=

    Metar: METAR EDDK 211920Z AUTO 28015KT 9999 SCT011 BKN018 BKN023 15/13 Q1012 BECMG 27010KT=

  • Charleroi (EBCI)

    Taf: TAF EBCI 211711Z 2118/2224 23006KT 9999 SCT025 PROB40 TEMPO 2206/2213 3500 SHRA RA BKN006 BKN012CB PROB30 TEMPO 2213/2218 4500 SHRA BKN014=

    Metar: METAR EBCI 211920Z 20006KT CAVOK 15/11 Q1014 NOSIG=

  • Wiesbaden (ETOU)

    Taf: TAF AMD ETOU 211800Z 2118/2218 20009KT 9999 SCT030 BKN040 QNH2988INS BECMG 2121/2122 31009KT 9999 BKN020 OVC030 QNH2992INS BECMG 2209/2210 23009KT 9000 -SHRA SCT030 OVC040 QNH2994INS TX25/2212Z TN12/2203Z LAST NO AMDS AFT 2118 NEXT 2201=

    Metar: METAR ETOU 211900Z NIL=

  • Karlsruhe/Baden-Baden (EDSB)

    Taf: TAF AMD EDSB 211921Z 2119/2218 23008KT 9999 BKN030 TEMPO 2119/2120 TSRA BKN030CB TEMPO 2211/2214 24013KT TSRA BKN015CB=

    Metar: METAR EDSB 211920Z 22007KT 9999 VCSH BKN043 BKN049 19/15 Q1013=

  • Chalons/Vatry (LFOK)

    Taf: TAF LFOK 211700Z 2118/2218 22009KT 9999 SCT030 PROB40 TEMPO 2118/2124 4000 SHRA SCT014 BKN020CB TEMPO 2200/2204 3000 SHRA BKN006 BKN012CB TEMPO 2202/2206 24015G25KT TEMPO 2204/2213 4500 -RA BKN012 OVC025 PROB40 TEMPO 2205/2208 3000 RA OVC009 PROB40 TEMPO 2208/2213 2000 RADZ BKN004 OVC007 BECMG 2213/2215 SCT017 BKN030 TEMPO 2215/2218 3000 SHRA SCT012 SCT025CB=

    Metar: METAR LFOK 211930Z AUTO 20004KT CAVOK 17/15 Q1015 TEMPO 4000 SHRA SCT014 BKN020CB=

  • Frankfurt/Main (EDDF)

    Taf: TAF EDDF 211700Z 2118/2224 23009KT 9999 FEW025 BECMG 2206/2209 BKN015 PROB30 TEMPO 2209/2217 SHRA BKN014CB BECMG 2218/2221 21004KT=

    Metar: METAR EDDF 211920Z AUTO 20014KT CAVOK 19/16 Q1011 NOSIG=

  • Brüssel (EBBR)

    Taf: TAF EBBR 211711Z 2118/2224 23007KT 9999 SCT025 PROB40 TEMPO 2208/2215 4500 SHRA RA BKN013=

    Metar: METAR EBBR 211920Z 21005KT CAVOK 15/12 Q1013 NOSIG=

  • Düsseldorf (EDDL)

    Taf: TAF EDDL 211700Z 2118/2224 28012KT 9999 BKN006 BKN010 BECMG 2118/2121 28007KT SCT012 BKN035 TEMPO 2118/2122 2500 RADZ PROB30 TEMPO 2121/2124 BKN012 BECMG 2123/2202 22006KT BECMG 2207/2210 24011KT BECMG 2216/2218 25004KT=

    Metar: METAR EDDL 211920Z AUTO 27015KT 5000 -RA BR SCT006 BKN017 OVC022 14/12 Q1012 RERA TEMPO RADZ=

  • Luxeuil (LFSX)

    Taf: TAF LFSX 211400Z 2115/2215 22010G20KT 9999 BKN030 TEMPO 2115/2215 4000 SHRA BKN020TCU PROB40 TEMPO 2115/2118 2000 TSRA BKN020CB TEMPO 2202/2206 BKN006 PROB40 TEMPO 2212/2215 2000 TSRA BKN020CB=

    Metar: METAR LFSX 211930Z AUTO 28005KT 4900 RA BR ////// 16/15 Q1016=

  • Eindhoven (EHEH)

    Taf: TAF EHEH 211701Z 2118/2224 26006KT CAVOK PROB30 TEMPO 2205/2207 SCT014 BECMG 2210/2212 SCT022 BKN035 TEMPO 2219/2222 4500 RA SHRA SCT018 FEW025CB BKN040=

    Metar: METAR EHEH 211925Z AUTO 24006KT 210V280 9999 SCT072 BKN077 BKN084 15/13 Q1012 BLU NOSIG=

  • Niederrhein (EDLV)

    Taf: TAF EDLV 211700Z 2118/2218 27007KT 8000 SCT006 BKN030 TEMPO 2118/2121 3000 RADZ BKN008 PROB30 TEMPO 2204/2207 BKN012=

    Metar: METAR EDLV 211920Z 23006KT 9999 BKN039 15/14 Q1011=

  • Dortmund/Wickede (EDLW)

    Taf: TAF EDLW 211700Z 2118/2218 25007KT 9999 BKN008 TEMPO 2118/2124 3000 RADZ SCT008 BKN012 BECMG 2200/2202 SCT025=

    Metar: METAR EDLW 211920Z 26009KT 230V290 4000 BR SCT004 BKN006 OVC015 17/16 Q1010=

  • Stuttgart/Echterdingen (EDDS)

    Taf: TAF EDDS 211700Z 2118/2218 23006KT CAVOK TEMPO 2118/2122 SHRA BKN030CB TEMPO 2210/2218 SHRA BKN030CB PROB40 TEMPO 2212/2215 24011KT TSRA BKN020CB=

    Metar: METAR EDDS 211920Z AUTO 19003KT 120V250 9999 FEW033 18/15 Q1014 NOSIG=

  • Basel-Mühlhausen (LFSB)

    Taf: TAF LFSB 211700Z 2118/2218 26005KT 9999 FEW040 TEMPO 2118/2122 28010G20KT 4000 SHRA FEW040CB PROB30 TEMPO 2118/2121 2000 TSRA BKN040CB TEMPO 2207/2218 28010G20KT SHRA FEW040TCU BKN050=

    Metar: METAR LFSB 211930Z AUTO 21004KT CAVOK 18/15 Q1016 TEMPO 28010G20KT 4000 SHRA FEW040CB=

  • Lille (LFQQ)

    Taf: TAF LFQQ 211700Z 2118/2224 25010KT 9999 SCT040 TEMPO 2202/2211 4000 -RA BKN012 OVC020 PROB40 TEMPO 2206/2211 19010KT 2000 RADZ OVC007 FM221100 25010KT 9999 SCT018 BKN030=

    Metar: METAR LFQQ 211930Z AUTO 25006KT CAVOK 18/11 Q1013 NOSIG=

  • Paris/Charles de Gaulle (LFPG)

    Taf: TAF LFPG 211700Z 2118/2224 25008KT 9999 SCT045 TX23/2118Z TN14/2205Z TEMPO 2118/2202 4000 -SHRA SCT040TCU PROB40 TEMPO 2123/2202 2500 SHRA SCT030TCU TEMPO 2203/2209 4000 -RA BKN012 TEMPO 2210/2211 4000 -SHRA SCT040TCU PROB40 TEMPO 2210/2211 2500 SHRA BECMG 2217/2219 CAVOK=

    Metar: METAR LFPG 211930Z 35002KT CAVOK 21/12 Q1014 NOSIG=

  • Paderborn/Lippstadt (EDLP)

    Taf: TAF EDLP 211700Z 2118/2218 25007KT 9999 SCT009 BKN030 TEMPO 2118/2124 4000 -RADZ BKN007 PROB30 TEMPO 2118/2121 2000 SHRA BKN012CB PROB30 TEMPO 2200/2204 4000 -RADZ BKN010 BECMG 2206/2209 25012KT BECMG 2216/2218 27006KT=

    Metar: METAR EDLP 211920Z VRB02KT 9999 FEW022 SCT033 18/17 Q1009=

  • Paris/Le Bourget (LFPB)

    Taf: TAF LFPB 211700Z 2118/2218 25008KT 9999 SCT045 TEMPO 2118/2202 4000 -SHRA SCT040TCU PROB40 TEMPO 2123/2202 2500 SHRA SCT030TCU TEMPO 2203/2209 4000 -RA BKN014 TEMPO 2210/2211 4000 -SHRA SCT040TCU PROB40 TEMPO 2210/2211 2500 SHRA BECMG 2217/2218 CAVOK=

    Metar: METAR LFPB 211930Z AUTO VRB03KT CAVOK 21/11 Q1013 TEMPO 4000 -SHRA SCT040TCU=

  • Rotterdam (EHRD)

    Taf: TAF EHRD 211718Z 2118/2224 25007KT 9999 SCT040 BECMG 2118/2120 22007KT BECMG 2204/2207 25012KT PROB40 TEMPO 2210/2215 7000 -RA -SHRA SCT008 BKN012 FEW018TCU BECMG 2215/2218 28006KT BECMG 2222/2224 22003KT 6000 MIFG=

    Metar: METAR EHRD 211925Z AUTO 24009KT 220V280 9999 FEW013/// 15/12 Q1011 NOSIG=

  • Zürich/Kloten (LSZH)

    Taf: TAF LSZH 211725Z 2118/2224 16008KT 9999 SCT025 BKN075 TX20/2214Z TN14/2205Z TEMPO 2118/2122 4500 SHRA FEW030TCU TEMPO 2210/2217 28010KT 4500 SHRA SCT050TCU=

    Metar: METAR LSZH 211920Z 19004KT 6000 SHRA FEW005 FEW025TCU SCT030 BKN060 16/15 Q1018 TEMPO NSW=

  • Oostende/Intl (EBOS)

    Taf: TAF EBOS 211711Z 2118/2224 22009KT 9999 SCT040 PROB40 TEMPO 2206/2213 4500 RA SHRA SCT008 BKN012=

    Metar: METAR EBOS 211920Z 24009KT CAVOK 17/11 Q1012 NOSIG=

  • Paris/Orly (LFPO)

    Taf: TAF LFPO 211700Z 2118/2224 26010KT 9999 FEW040 PROB30 TEMPO 2118/2120 SCT040TCU PROB40 TEMPO 2120/2123 3000 SHRA BKN014 SCT035CB PROB30 TEMPO 2123/2201 BKN009 TEMPO 2205/2210 4000 -RADZ BKN009 BECMG 2210/2212 32010KT TEMPO 2210/2213 3000 SHRA SCT030CB PROB30 TEMPO 2211/2213 -TSRA PROB30 TEMPO 2213/2217 -SHRA FEW030TCU=

    Metar: METAR LFPO 211930Z AUTO 19004KT CAVOK 20/16 Q1014 TEMPO 3000 SHRA BKN014 SCT035CB BECMG 26010KT=

  • Beauvais (LFOB)

    Taf: TAF AMD LFOB 211840Z 2118/2218 32010KT CAVOK PROB40 TEMPO 2122/2202 3000 SHRA BKN040TCU BECMG 2201/2203 23008KT TEMPO 2201/2209 4000 -RA BKN012 OVC020 PROB40 TEMPO 2205/2209 2000 RADZ SCT004 OVC007 TEMPO 2209/2211 BKN012 BKN025 TEMPO 2211/2214 3500 SHRA BKN025TCU BECMG 2216/2218 30013KT=

    Metar: METAR LFOB 211930Z AUTO 30006KT CAVOK 18/13 Q1013 NOSIG=

  • Münster/Intl (EDDG)

    Taf: TAF EDDG 211700Z 2118/2218 26007KT 9999 SCT009 BKN030 TEMPO 2118/2202 BKN006 PROB40 TEMPO 2118/2124 3000 RADZ BKN012 PROB30 TEMPO 2200/2203 4000 BR BKN010 BECMG 2207/2209 24012KT BECMG 2216/2218 26007KT=

    Metar: METAR EDDG 211920Z AUTO 29007KT 260V320 9999 BKN011 OVC018 17/15 Q1009 BECMG BKN015=

  • Illesheim (ETIK)

    Taf: TAF ETIK 211400Z 2114/2220 16010G15KT 9999 BKN040 OVC080 QNH2988INS TEMPO 2116/2120 20015G25KT 6000 TSRA BKN030CB BECMG 2119/2120 24010G15KT 9999 BKN025 BKN040 OVC080 QNH2990INS BECMG 2123/2124 26009KT 8000 -SHRA BKN020 OVC040 QNH2993INS BECMG 2203/2204 27009KT 8000 BR BKN015 OVC040 QNH2997INS BECMG 2205/2206 27010G15KT 9999 NSW SCT020 BKN030 BKN060 QNH2998INS BECMG 2211/2212 27010G15KT 9000 -SHRA BKN030 OVC060 QNH2996INS TEMPO 2215/2218 27012G20KT 8000 -TSRA BKN030CB BECMG 2218/2219 VRB06KT 9999 NSW SCT030 BKN040 OVC060 QNH3000INS TX25/2115Z TN13/2204Z LAST NO AMDS AFT 2121 NEXT 2406=

    Metar: METAR ETIK 211855Z AUTO 27006KT 9999 SCT075 BKN140 19/13 A2992 RMK AO2 PK WND 27027/14 DZB13E24 SLP129 P0000 T01860132 $=

  • Duebendorf (LSMD)

    Taf: TAF LSMD 211625Z 2117/2223 14007KT 8000 -RA FEW050 BKN060 TEMPO 2117/2121 24008KT SHRA FEW050TCU PROB30 TEMPO 2121/2124 SHRA TEMPO 2210/2217 28010KT SHRA SCT050TCU=

    Metar: METAR LSMD 211920Z AUTO 16003KT 110V230 9999NDV SCT037 BKN053 OVC110 16/14 Q1017 RMK=

  • Villacoublay (LFPV)

    Taf: TAF LFPV 211400Z 2115/2215 25005KT 9999 SCT030 TX22/2115Z TN13/2205Z TEMPO 2115/2119 4500 -SHRA BKN025CB PROB30 TEMPO 2115/2119 2500 -TSRA BKN008 BKN020CB TEMPO 2119/2201 3000 -SHRA BKN008 SCT015CB BECMG 2203/2205 BKN010 PROB40 TEMPO 2206/2209 BKN004 TEMPO 2209/2214 4000 -SHRA BKN020CB BECMG 2211/2213 BKN025=

    Metar: METAR LFPV 211930Z AUTO 21003KT 180V240 CAVOK 20/15 Q1014 TEMPO 3000 -SHRA BKN008 SCT015CB=

  • Payerne (LSMP)

    Taf: TAF LSMP 211625Z 2117/2223 23007KT 9999 FEW050 SCT080 TEMPO 2117/2212 SHRA SCT050TCU=

    Metar: METAR LSMP 211920Z AUTO 23003KT 9999NDV FEW019 19/16 Q1017 RMK=

  • Amsterdam/Schipol (EHAM)

    Taf: TAF EHAM 211718Z 2118/2224 27007KT 9999 SCT040 PROB30 TEMPO 2118/2120 SCT007 BKN012 BECMG 2119/2121 22007KT BECMG 2204/2207 25012KT PROB30 TEMPO 2211/2215 -RA -SHRA FEW018TCU SCT020 BECMG 2215/2218 28007KT BECMG 2222/2224 22004KT=

    Metar: METAR EHAM 211925Z 25011KT 200V270 9999 FEW007 16/14 Q1011 NOSIG=

  • Emmen (LSME)

    Taf: TAF LSME 211625Z 2117/2223 VRB02KT 8000 SCT040 BKN050 PROB30 TEMPO 2117/2119 4000 TSRA SCT040CB PROB30 TEMPO 2119/2201 SHRA TEMPO 2209/2217 28010KT SHRA SCT050TCU=

    Metar: METAR LSME 211920Z AUTO 24004KT 210V280 9999NDV SCT082 BKN120 BKN140 17/15 Q1017 RMK=

  • Friedrichshafen (EDNY)

    Taf: TAF EDNY 211724Z 2118/2203 24006KT 9999 SCT045 TEMPO 2118/2202 25015G25KT 4000 SHRA BKN040CB=

    Metar: METAR EDNY 211920Z 13007KT 090V180 9999 -RA OVC046 15/15 Q1017=

  • Alpnach (LSMA)

    Taf: TAF LSMA 211625Z 2117/2223 VRB02KT 8000 -RA FEW020 BKN030 PROB30 TEMPO 2117/2119 4000 TSRA SCT025CB PROB30 TEMPO 2119/2202 SHRA TEMPO 2210/2217 25010KT SHRA SCT045TCU=

    Metar: METAR LSMA 211920Z AUTO 17003KT 140V210 9999NDV -SHRA FEW008 BKN093 16/15 Q1017 RMK=

  • Meiringen (LSMM)

    Taf: TAF LSMM 211625Z 2117/2223 VRB02KT 6000 -RA FEW010 SCT020 BKN030 PROB40 TEMPO 2117/2120 4500 RA BKN014 PROB30 TEMPO 2117/2120 10012G25KT 4000 TSRA SCT020CB PROB30 TEMPO 2120/2201 RA TEMPO 2209/2217 28010KT SHRA SCT040TCU=

    Metar: METAR LSMM 211920Z AUTO VRB02KT 9999NDV -RA FEW039 BKN082 14/14 Q1018 RMK=

  • Nürnberg (EDDN)

    Taf: TAF EDDN 211700Z 2118/2218 23008KT CAVOK TEMPO 2118/2203 SHRA SCT012 SCT045CB PROB30 TEMPO 2118/2120 3000 TSRA BKN012 BKN045CB BECMG 2212/2214 32005KT=

    Metar: METAR EDDN 211920Z AUTO 20007KT 9999 -SHRA SCT034 FEW///TCU 19/15 Q1014 TEMPO 22013KT SHRA=

  • Rouen (LFOP)

    Taf: TAF AMD LFOP 211809Z 2118/2124 CNL=

    Metar: METAR LFOP 211930Z AUTO 30005KT CAVOK 17/12 Q1014=

  • Evreux (LFOE)

    Taf: TAF LFOE 211400Z 2115/2215 27008KT CAVOK PROB30 TEMPO 2115/2117 VRB15G25KT 4000 -SHRA SCT035TCU TEMPO 2121/2123 4000 -RA BECMG 2201/2203 21010KT 4000 -RA BKN015 BECMG 2206/2208 27010KT 9999 NSW TEMPO 2206/2209 BKN009 BKN015TCU BECMG 2209/2211 30010KT SCT035TCU TEMPO 2211/2215 4000 SHRA BKN030TCU=

    Metar: METAR LFOE 211930Z AUTO 33003KT 300V360 CAVOK 19/13 Q1014 TEMPO 4000 -RA=

  • Erfurt/Bindersleben (EDDE)

    Taf: TAF EDDE 211700Z 2118/2218 21010KT CAVOK PROB30 TEMPO 2121/2203 SHRA SCT014CB BECMG 2202/2205 27013KT=

    Metar: METAR EDDE 211920Z AUTO 20008KT 9999 -SHRA FEW///TCU 21/14 Q1010 TEMPO SHRA=